You are listening to:
EHAM Tower (18L/36R-22/04) - Amsterdam, Netherlands

EHAM 151855Z 29002KT 9999 FEW016 16/14 Q1022 NOSIG

If stream does not start automatically press the play button